createdAt,value
2022-11-22T00:00:30.709Z,10.52
2022-11-22T00:02:57.490Z,12.20
2022-11-22T00:05:24.262Z,12.07
2022-11-22T00:07:51.147Z,11.95
2022-11-22T00:10:18.191Z,15.80
2022-11-22T00:12:45.547Z,13.38
2022-11-22T00:15:12.957Z,11.95
2022-11-22T00:17:40.308Z,11.98
2022-11-22T00:20:08.899Z,10.85
2022-11-22T00:22:41.118Z,11.73
2022-11-22T00:25:11.133Z,12.40
2022-11-22T00:27:37.917Z,13.25
2022-11-22T00:30:05.513Z,12.60
2022-11-22T00:32:32.381Z,11.20
2022-11-22T00:34:59.169Z,11.65
2022-11-22T00:37:26.010Z,10.77
2022-11-22T00:39:52.999Z,13.02
2022-11-22T00:42:19.971Z,10.55
2022-11-22T00:44:47.019Z,10.25
2022-11-22T00:47:13.842Z,12.55
2022-11-22T00:49:40.605Z,9.75
2022-11-22T00:52:07.410Z,9.55
2022-11-22T00:54:34.253Z,14.20
2022-11-22T00:57:01.036Z,11.40
2022-11-22T00:59:28.272Z,9.10
2022-11-22T01:01:55.269Z,11.77
2022-11-22T01:04:22.111Z,10.52
2022-11-22T01:06:48.921Z,10.45
2022-11-22T01:09:21.318Z,10.27
2022-11-22T01:11:49.036Z,11.85
2022-11-22T01:14:16.756Z,14.30
2022-11-22T01:16:43.669Z,12.95
2022-11-22T01:19:10.817Z,12.57
2022-11-22T01:21:38.092Z,14.48
2022-11-22T01:24:05.071Z,14.60
2022-11-22T01:26:33.133Z,13.90
2022-11-22T01:29:00.094Z,15.65
2022-11-22T01:31:26.879Z,15.05
2022-11-22T01:33:53.641Z,13.77
2022-11-22T01:36:20.411Z,13.93
2022-11-22T01:38:47.293Z,14.07
2022-11-22T01:41:14.232Z,11.60
2022-11-22T01:43:41.107Z,14.93
2022-11-22T01:46:16.141Z,14.45
2022-11-22T01:49:10.126Z,14.65
2022-11-22T01:51:44.078Z,14.25
2022-11-22T01:54:15.844Z,13.80
2022-11-22T01:56:46.170Z,13.77
2022-11-22T01:59:16.037Z,15.93
2022-11-22T02:01:43.667Z,14.55
2022-11-22T02:04:13.776Z,15.18
2022-11-22T02:07:02.787Z,11.65
2022-11-22T02:09:30.420Z,16.23
2022-11-22T02:12:01.096Z,13.18
2022-11-22T02:14:28.810Z,16.38
2022-11-22T02:16:56.103Z,14.50
2022-11-22T02:19:47.308Z,15.68
2022-11-22T02:22:25.399Z,11.98
2022-11-22T02:25:36.268Z,13.80
2022-11-22T02:28:07.255Z,16.08
2022-11-22T02:30:36.424Z,17.33
2022-11-22T02:33:03.468Z,17.10
2022-11-22T02:35:30.690Z,16.92
2022-11-22T02:38:03.160Z,19.48
2022-11-22T02:40:36.694Z,13.57
2022-11-22T02:43:08.285Z,13.32
2022-11-22T02:45:35.087Z,10.93
2022-11-22T02:48:09.159Z,10.43
2022-11-22T02:50:36.338Z,12.95
2022-11-22T02:53:04.537Z,12.10
2022-11-22T02:55:32.315Z,14.75
2022-11-22T02:57:59.255Z,12.00
2022-11-22T03:00:26.399Z,15.70
2022-11-22T03:02:53.319Z,14.27
2022-11-22T03:05:20.550Z,11.48
2022-11-22T03:07:47.427Z,11.85
2022-11-22T03:10:14.592Z,11.73
2022-11-22T03:12:41.586Z,11.93
2022-11-22T03:15:08.602Z,12.73
2022-11-22T03:17:35.384Z,12.85
2022-11-22T03:20:02.252Z,11.75
2022-11-22T03:22:29.016Z,9.98
2022-11-22T03:24:55.843Z,9.32
2022-11-22T03:27:22.744Z,8.70
2022-11-22T03:29:49.515Z,15.75
2022-11-22T03:32:16.430Z,4.85
2022-11-22T03:34:43.397Z,7.40
2022-11-22T03:37:10.213Z,9.52
2022-11-22T03:39:36.994Z,4.90
2022-11-22T03:42:03.873Z,6.88
2022-11-22T03:44:30.645Z,5.18
2022-11-22T03:46:57.387Z,5.18
2022-11-22T03:49:24.279Z,5.57
2022-11-22T03:51:51.474Z,5.22
2022-11-22T03:54:18.229Z,6.82
2022-11-22T03:56:44.993Z,7.50
2022-11-22T03:59:11.945Z,4.82
2022-11-22T04:01:38.896Z,6.38
2022-11-22T04:04:05.811Z,7.88
2022-11-22T04:06:32.811Z,4.18
2022-11-22T04:08:59.779Z,6.90
2022-11-22T04:11:26.996Z,3.30
2022-11-22T04:14:12.256Z,8.60
2022-11-22T04:16:39.652Z,7.20
2022-11-22T04:19:06.791Z,11.48
2022-11-22T04:21:36.457Z,12.68
2022-11-22T04:24:29.801Z,9.85
2022-11-22T04:26:57.410Z,3.38
2022-11-22T04:29:24.245Z,6.50
2022-11-22T04:32:10.130Z,7.30
2022-11-22T04:34:37.421Z,9.50
2022-11-22T04:37:04.899Z,4.43
2022-11-22T04:39:32.169Z,7.78
2022-11-22T04:42:17.748Z,8.40
2022-11-22T04:44:45.355Z,4.90
2022-11-22T04:47:34.798Z,3.60
2022-11-22T04:50:27.120Z,6.00
2022-11-22T04:52:55.684Z,7.22
2022-11-22T04:55:22.858Z,9.60
2022-11-22T04:57:52.071Z,2.95
2022-11-22T05:00:22.955Z,5.53
2022-11-22T05:02:49.748Z,8.13
2022-11-22T05:05:16.630Z,8.15
2022-11-22T05:07:43.440Z,7.10
2022-11-22T05:10:11.952Z,5.22
2022-11-22T05:12:40.142Z,10.25
2022-11-22T05:15:07.800Z,10.60
2022-11-22T05:17:34.654Z,6.95
2022-11-22T05:20:01.658Z,12.60
2022-11-22T05:22:47.333Z,7.28
2022-11-22T05:25:14.213Z,11.32
2022-11-22T05:27:40.991Z,9.95
2022-11-22T05:30:08.125Z,8.52
2022-11-22T05:32:35.156Z,9.10
2022-11-22T05:35:02.021Z,12.10
2022-11-22T05:37:29.302Z,9.45
2022-11-22T05:39:56.134Z,8.52
2022-11-22T05:42:22.930Z,12.50
2022-11-22T05:44:49.719Z,16.10
2022-11-22T05:47:16.463Z,15.68
2022-11-22T05:49:46.044Z,11.57
2022-11-22T05:52:13.232Z,9.30
2022-11-22T05:54:40.091Z,15.25
2022-11-22T05:57:07.282Z,13.10
2022-11-22T05:59:34.247Z,13.73
2022-11-22T06:02:01.037Z,11.68
2022-11-22T06:04:27.807Z,14.90
2022-11-22T06:06:54.684Z,13.48
2022-11-22T06:09:22.825Z,14.00
2022-11-22T06:11:50.054Z,17.85
2022-11-22T06:14:16.863Z,10.73
2022-11-22T06:16:43.894Z,13.15
2022-11-22T06:19:10.997Z,10.82
2022-11-22T06:21:37.810Z,8.32
2022-11-22T06:24:04.925Z,11.10
2022-11-22T06:26:37.630Z,10.65
2022-11-22T06:29:06.159Z,12.40
2022-11-22T06:31:33.545Z,8.20
2022-11-22T06:34:00.768Z,8.75
2022-11-22T06:36:30.544Z,6.90
2022-11-22T06:38:57.963Z,21.45
2022-11-22T06:41:27.022Z,17.55
2022-11-22T06:43:56.448Z,28.38
2022-11-22T06:46:25.604Z,18.25
2022-11-22T06:48:52.568Z,14.73
2022-11-22T06:51:25.734Z,12.57
2022-11-22T06:53:56.620Z,10.75
2022-11-22T06:56:24.777Z,10.05
2022-11-22T06:58:53.373Z,12.30
2022-11-22T07:01:22.431Z,13.07
2022-11-22T07:03:49.738Z,9.27
2022-11-22T07:06:18.937Z,8.85
2022-11-22T07:08:46.386Z,11.93
2022-11-22T07:14:06.989Z,8.77
2022-11-22T07:16:36.072Z,7.35
2022-11-22T07:19:02.953Z,8.88
2022-11-22T07:21:29.849Z,13.30
2022-11-22T07:23:56.697Z,12.15
2022-11-22T07:26:25.909Z,8.20
2022-11-22T07:28:53.320Z,11.40
2022-11-22T07:31:20.809Z,14.02
2022-11-22T07:33:47.789Z,12.98
2022-11-22T07:36:20.484Z,11.02
2022-11-22T07:38:48.508Z,11.90
2022-11-22T07:41:16.159Z,10.75
2022-11-22T07:43:43.697Z,9.70
2022-11-22T07:46:37.054Z,6.65
2022-11-22T07:49:03.823Z,8.70
2022-11-22T07:51:30.798Z,9.15
2022-11-22T07:54:00.306Z,13.05
2022-11-22T07:56:27.091Z,11.95
2022-11-22T07:58:55.074Z,11.77
2022-11-22T08:01:21.912Z,11.85
2022-11-22T08:03:49.242Z,10.82
2022-11-22T08:06:16.581Z,16.23
2022-11-22T08:08:44.014Z,14.45
2022-11-22T08:11:11.723Z,9.70
2022-11-22T08:13:38.628Z,5.57
2022-11-22T08:16:11.692Z,6.15
2022-11-22T08:18:39.489Z,9.90
2022-11-22T08:21:08.545Z,6.85
2022-11-22T08:23:35.839Z,9.63
2022-11-22T08:26:03.626Z,8.02
2022-11-22T08:28:30.625Z,9.65
2022-11-22T08:31:08.974Z,10.52
2022-11-22T08:33:36.046Z,12.65
2022-11-22T08:36:03.335Z,7.93
2022-11-22T08:38:30.486Z,5.93
2022-11-22T08:40:57.475Z,10.18
2022-11-22T08:43:24.506Z,7.10
2022-11-22T08:45:57.327Z,8.85
2022-11-22T08:48:28.094Z,9.27
2022-11-22T08:51:03.156Z,6.47
2022-11-22T08:53:32.680Z,11.27
2022-11-22T08:56:00.961Z,7.95
2022-11-22T08:58:30.225Z,6.57
2022-11-22T09:00:57.416Z,6.75
2022-11-22T09:03:24.324Z,5.18
2022-11-22T09:08:40.493Z,6.40
2022-11-22T09:11:12.824Z,8.25
2022-11-22T09:13:40.572Z,5.60
2022-11-22T09:16:19.060Z,5.90
2022-11-22T09:18:47.183Z,5.60
2022-11-22T09:21:17.965Z,8.98
2022-11-22T09:23:46.800Z,6.90
2022-11-22T09:26:16.322Z,6.53
2022-11-22T09:28:43.850Z,5.53
2022-11-22T09:31:12.183Z,4.15
2022-11-22T09:33:40.611Z,6.18
2022-11-22T09:36:13.857Z,5.38
2022-11-22T09:38:40.958Z,6.75
2022-11-22T09:41:46.285Z,5.00
2022-11-22T09:44:45.329Z,6.78
2022-11-22T09:47:24.679Z,9.25
2022-11-22T09:50:23.186Z,10.95
2022-11-22T09:52:57.035Z,7.78
2022-11-22T09:55:33.363Z,7.05
2022-11-22T09:58:21.406Z,7.30
2022-11-22T10:00:52.271Z,5.50
2022-11-22T10:03:42.485Z,8.95
2022-11-22T10:06:19.243Z,10.88
2022-11-22T10:09:21.990Z,7.13
2022-11-22T10:11:52.187Z,6.25
2022-11-22T10:14:54.105Z,3.95
2022-11-22T10:17:37.251Z,7.00
2022-11-22T10:20:18.605Z,6.50
2022-11-22T10:22:46.098Z,4.85
2022-11-22T10:25:21.931Z,4.15
2022-11-22T10:28:00.788Z,6.10
2022-11-22T10:30:34.781Z,7.15
2022-11-22T10:33:15.213Z,7.00
2022-11-22T10:36:13.112Z,7.35
2022-11-22T10:38:47.741Z,12.00
2022-11-22T10:41:35.086Z,3.03
2022-11-22T10:44:01.872Z,4.80
2022-11-22T10:46:56.922Z,7.25
2022-11-22T10:49:45.422Z,6.78
2022-11-22T10:52:37.305Z,8.68
2022-11-22T10:55:26.815Z,6.40
2022-11-22T10:58:16.754Z,5.68
2022-11-22T11:00:51.563Z,7.65
2022-11-22T11:03:32.428Z,7.05
2022-11-22T11:06:38.046Z,5.90
2022-11-22T11:12:10.387Z,5.47
2022-11-22T11:14:44.472Z,5.30
2022-11-22T11:17:17.648Z,4.00
2022-11-22T11:19:49.614Z,6.65
2022-11-22T11:22:31.606Z,8.38
2022-11-22T11:25:29.160Z,4.10
2022-11-22T11:27:59.679Z,7.80
2022-11-22T11:30:26.565Z,9.55
2022-11-22T11:32:57.224Z,3.50
2022-11-22T11:35:28.943Z,6.88
2022-11-22T11:37:56.281Z,8.98
2022-11-22T11:40:29.001Z,2.72
2022-11-22T11:43:19.761Z,7.15
2022-11-22T11:45:47.109Z,4.60
2022-11-22T11:48:41.301Z,3.35
2022-11-22T11:51:20.605Z,3.20
2022-11-22T11:53:57.661Z,3.55
2022-11-22T11:56:30.061Z,3.47
2022-11-22T11:58:59.317Z,4.82
2022-11-22T12:01:26.969Z,4.97
2022-11-22T12:04:01.763Z,6.32
2022-11-22T12:06:30.701Z,4.10
2022-11-22T12:08:58.671Z,4.57
2022-11-22T12:11:41.664Z,3.67
2022-11-22T12:14:20.127Z,4.90
2022-11-22T12:16:50.374Z,3.88
2022-11-22T12:19:47.933Z,4.60
2022-11-22T12:22:48.891Z,2.38
2022-11-22T12:25:33.700Z,1.80
2022-11-22T12:28:24.328Z,4.95
2022-11-22T12:34:10.978Z,4.75
2022-11-22T12:36:50.978Z,3.67
2022-11-22T12:39:25.621Z,3.33
2022-11-22T12:42:21.591Z,2.03
2022-11-22T12:45:07.687Z,4.30
2022-11-22T12:47:41.667Z,2.65
2022-11-22T12:48:22.534Z,3.38
2022-11-22T12:50:18.835Z,4.38
2022-11-22T12:52:51.623Z,2.88
2022-11-22T12:55:23.854Z,5.30
2022-11-22T12:58:07.753Z,2.67
2022-11-22T13:00:44.653Z,4.38
2022-11-22T13:03:13.094Z,3.88
2022-11-22T13:05:54.232Z,13.63
2022-11-22T13:08:51.536Z,16.27
2022-11-22T13:11:50.344Z,30.63
2022-11-22T13:14:23.654Z,9.07
2022-11-22T13:16:51.137Z,13.48
2022-11-22T13:19:22.729Z,15.93
2022-11-22T13:22:08.733Z,10.57
2022-11-22T13:25:02.111Z,12.07
2022-11-22T13:27:36.401Z,7.65
2022-11-22T13:30:04.436Z,5.65
2022-11-22T13:32:36.025Z,1.33
2022-11-22T13:35:11.951Z,15.02
2022-11-22T13:37:45.509Z,2.10
2022-11-22T13:40:15.499Z,3.88
2022-11-22T13:42:43.190Z,1.70
2022-11-22T13:45:24.308Z,3.20
2022-11-22T13:47:52.309Z,3.72
2022-11-22T13:50:41.261Z,2.15
2022-11-22T13:53:24.237Z,3.55
2022-11-22T13:55:51.513Z,2.22
2022-11-22T13:58:24.245Z,6.05
2022-11-22T14:00:53.158Z,1.73
2022-11-22T14:03:33.743Z,1.42
2022-11-22T14:06:13.968Z,3.13
2022-11-22T14:08:41.453Z,1.02
2022-11-22T14:11:13.196Z,3.22
2022-11-22T14:13:58.232Z,7.85
2022-11-22T14:16:52.949Z,2.47
2022-11-22T14:19:28.806Z,1.70
2022-11-22T14:21:55.959Z,2.15
2022-11-22T14:25:17.652Z,2.67
2022-11-22T14:27:56.475Z,6.28
2022-11-22T14:30:40.626Z,0.82
2022-11-22T14:33:19.294Z,3.85
2022-11-22T14:36:04.443Z,2.55
2022-11-22T14:38:32.859Z,2.17
2022-11-22T14:41:27.911Z,0.80
2022-11-22T14:44:16.003Z,2.70
2022-11-22T14:46:55.874Z,4.00
2022-11-22T14:49:44.790Z,2.65
2022-11-22T14:52:23.456Z,1.92
2022-11-22T14:54:58.001Z,6.65
2022-11-22T14:57:27.545Z,2.72
2022-11-22T15:00:09.564Z,3.65
2022-11-22T15:03:04.193Z,3.65
2022-11-22T15:09:14.566Z,3.40
2022-11-22T15:09:14.913Z,7.13
2022-11-22T15:11:57.245Z,3.72
2022-11-22T15:14:35.680Z,6.35
2022-11-22T15:59:44.903Z,16.42
2022-11-22T16:02:25.280Z,6.32
2022-11-22T16:06:09.245Z,3.55
2022-11-22T16:07:49.706Z,5.40
2022-11-22T16:10:28.018Z,5.18
2022-11-22T16:12:54.838Z,4.22
2022-11-22T16:15:37.120Z,4.90
2022-11-22T16:18:14.788Z,5.75
2022-11-22T16:21:00.575Z,5.00
2022-11-22T16:23:29.686Z,14.73
2022-11-22T16:26:21.804Z,11.27
2022-11-22T16:28:53.876Z,4.07
2022-11-22T16:31:26.632Z,8.32
2022-11-22T16:33:55.220Z,5.47
2022-11-22T16:36:24.053Z,4.80
2022-11-22T16:38:51.484Z,4.78
2022-11-22T16:41:26.509Z,4.13
2022-11-22T16:43:56.302Z,5.60
2022-11-22T16:46:23.142Z,6.28
2022-11-22T16:48:50.546Z,3.40
2022-11-22T16:51:23.259Z,2.97
2022-11-22T16:53:51.755Z,4.15
2022-11-22T16:56:19.556Z,5.25
2022-11-22T16:58:48.704Z,3.42
2022-11-22T17:01:19.052Z,2.70
2022-11-22T17:03:48.029Z,7.40
2022-11-22T17:06:21.045Z,5.75
2022-11-22T17:08:49.816Z,7.53
2022-11-22T17:11:19.041Z,8.40
2022-11-22T17:13:46.455Z,12.75
2022-11-22T17:16:14.137Z,8.32
2022-11-22T17:18:41.257Z,9.38
2022-11-22T17:21:20.644Z,11.70
2022-11-22T17:23:48.435Z,13.60
2022-11-22T17:26:15.296Z,11.13
2022-11-22T17:28:42.148Z,8.50
2022-11-22T17:31:14.292Z,15.00
2022-11-22T17:33:41.625Z,11.32
2022-11-22T17:36:22.056Z,8.02
2022-11-22T17:38:49.016Z,6.70
2022-11-22T17:41:16.234Z,6.90
2022-11-22T17:43:43.119Z,4.45
2022-11-22T17:46:10.361Z,7.00
2022-11-22T17:48:37.479Z,7.05
2022-11-22T17:51:09.190Z,5.22
2022-11-22T17:53:36.373Z,9.32
2022-11-22T17:56:10.421Z,9.63
2022-11-22T17:58:37.877Z,8.23
2022-11-22T18:01:13.480Z,12.27
2022-11-22T18:03:41.187Z,14.90
2022-11-22T18:06:09.342Z,11.13
2022-11-22T18:08:36.619Z,11.40
2022-11-22T18:11:04.435Z,10.75
2022-11-22T18:13:37.097Z,10.00
2022-11-22T18:16:07.729Z,11.02
2022-11-22T18:21:26.666Z,10.52
2022-11-22T18:23:53.561Z,11.27
2022-11-22T18:26:38.810Z,11.40
2022-11-22T18:31:54.491Z,13.60
2022-11-22T18:34:22.890Z,9.95
2022-11-22T18:37:01.931Z,10.25
2022-11-22T18:39:40.448Z,7.65
2022-11-22T18:42:11.956Z,5.13
2022-11-22T18:44:38.953Z,2.85
2022-11-22T18:47:05.921Z,7.05
2022-11-22T18:49:33.235Z,5.65
2022-11-22T18:52:00.706Z,9.23
2022-11-22T18:54:27.478Z,11.48
2022-11-22T18:56:54.621Z,9.93
2022-11-22T18:59:21.663Z,8.48
2022-11-22T19:01:48.509Z,7.93
2022-11-22T19:04:16.197Z,10.63
2022-11-22T19:06:43.862Z,16.95
2022-11-22T19:09:11.355Z,8.75
2022-11-22T19:11:38.717Z,12.45
2022-11-22T19:14:06.094Z,11.82
2022-11-22T19:16:33.226Z,12.05
2022-11-22T19:19:00.132Z,9.95
2022-11-22T19:21:29.777Z,8.50
2022-11-22T19:23:57.387Z,8.52
2022-11-22T19:26:26.538Z,7.30
2022-11-22T19:28:56.526Z,8.60
2022-11-22T19:31:29.119Z,7.57
2022-11-22T19:33:56.772Z,10.27
2022-11-22T19:36:32.199Z,15.02
2022-11-22T19:39:00.936Z,18.27
2022-11-22T19:41:28.812Z,12.00
2022-11-22T19:43:56.295Z,11.68
2022-11-22T19:46:24.263Z,12.30
2022-11-22T19:48:52.798Z,11.98
2022-11-22T19:51:19.961Z,6.78
2022-11-22T19:53:47.175Z,7.15
2022-11-22T19:56:18.496Z,8.45
2022-11-22T19:58:51.466Z,7.82
2022-11-22T20:01:19.191Z,10.23
2022-11-22T20:03:46.506Z,12.35
2022-11-22T20:06:14.371Z,8.23
2022-11-22T20:08:41.369Z,11.55
2022-11-22T20:11:13.906Z,12.23
2022-11-22T20:13:43.353Z,10.10
2022-11-22T20:16:21.110Z,7.60
2022-11-22T20:18:52.619Z,12.40
2022-11-22T20:21:22.261Z,9.60
2022-11-22T20:23:50.623Z,7.90
2022-11-22T20:26:17.907Z,6.32
2022-11-22T20:28:45.969Z,8.38
2022-11-22T20:31:13.178Z,6.05
2022-11-22T20:33:42.632Z,9.35
2022-11-22T20:36:12.533Z,12.55
2022-11-22T20:38:41.289Z,10.20
2022-11-22T20:41:09.170Z,8.63
2022-11-22T20:43:36.673Z,10.60
2022-11-22T20:46:12.824Z,9.45
2022-11-22T20:48:41.234Z,7.72
2022-11-22T20:51:10.324Z,7.47
2022-11-22T20:53:37.438Z,7.57
2022-11-22T20:56:05.248Z,7.35
2022-11-22T20:58:32.568Z,9.88
2022-11-22T21:01:04.257Z,13.02
2022-11-22T21:03:31.308Z,12.27
2022-11-22T21:05:58.341Z,7.65
2022-11-22T21:08:25.357Z,13.25
2022-11-22T21:10:52.523Z,10.82
2022-11-22T21:13:19.617Z,9.27
2022-11-22T21:15:46.582Z,10.75
2022-11-22T21:18:29.149Z,6.97
2022-11-22T21:21:08.321Z,6.57
2022-11-22T21:23:36.254Z,4.88
2022-11-22T21:26:04.770Z,6.80
2022-11-22T21:28:36.086Z,6.43
2022-11-22T21:31:03.897Z,6.22
2022-11-22T21:33:32.856Z,6.28
2022-11-22T21:36:00.648Z,5.05
2022-11-22T21:38:31.086Z,9.45
2022-11-22T21:41:23.941Z,4.50
2022-11-22T21:43:50.616Z,6.28
2022-11-22T21:46:18.407Z,5.38
2022-11-22T21:48:45.407Z,6.43
2022-11-22T21:51:12.207Z,7.25
2022-11-22T21:53:39.055Z,9.90
2022-11-22T21:56:06.162Z,6.43
2022-11-22T21:58:33.201Z,5.10
2022-11-22T22:01:08.225Z,8.25
2022-11-22T22:03:37.867Z,7.00
2022-11-22T22:06:04.672Z,7.68
2022-11-22T22:08:31.864Z,9.10
2022-11-22T22:10:58.928Z,9.63
2022-11-22T22:13:26.064Z,7.55
2022-11-22T22:15:58.255Z,8.02
2022-11-22T22:18:30.814Z,9.20
2022-11-22T22:21:04.136Z,8.40
2022-11-22T22:23:32.185Z,9.82
2022-11-22T22:26:04.666Z,6.70
2022-11-22T22:28:33.136Z,12.63
2022-11-22T22:31:15.773Z,10.02
2022-11-22T22:33:43.151Z,9.52
2022-11-22T22:36:11.033Z,10.98
2022-11-22T22:38:38.478Z,8.38
2022-11-22T22:41:06.642Z,9.68
2022-11-22T22:43:35.580Z,9.57
2022-11-22T22:46:06.441Z,13.30
2022-11-22T22:48:34.191Z,6.45
2022-11-22T22:51:08.675Z,8.45
2022-11-22T22:53:35.662Z,7.20
2022-11-22T22:56:02.916Z,8.88
2022-11-22T22:58:29.752Z,8.23
2022-11-22T23:01:15.050Z,10.48
2022-11-22T23:03:42.210Z,7.47
2022-11-22T23:06:11.792Z,7.90
2022-11-22T23:08:39.391Z,11.57
2022-11-22T23:11:10.860Z,9.85
2022-11-22T23:13:39.641Z,9.70
2022-11-22T23:16:08.302Z,9.85
2022-11-22T23:18:37.089Z,10.60
2022-11-22T23:21:06.503Z,11.10
2022-11-22T23:23:34.188Z,11.13
2022-11-22T23:26:03.262Z,7.78
2022-11-22T23:28:30.469Z,8.60
2022-11-22T23:31:03.240Z,5.93
2022-11-22T23:33:30.066Z,9.00
2022-11-22T23:36:07.094Z,7.18
2022-11-22T23:38:33.974Z,6.53
2022-11-22T23:41:01.203Z,7.00
2022-11-22T23:43:29.001Z,7.55
2022-11-22T23:45:56.167Z,5.78
2022-11-22T23:48:22.946Z,7.68
2022-11-22T23:50:49.808Z,8.90
2022-11-22T23:53:16.594Z,7.28
2022-11-22T23:55:43.787Z,6.15
2022-11-22T23:58:10.629Z,9.60
